Current Conditions
Mostly Clear
Conditions



Pressure
1000.92 (mb) - 29.56 (inHG)
Visibility

6.2 (miles) - 10.0 (km)
Temperature
9  °C
Temperature
8  °C
Dewpoint
94  %
 Humidity
Wind Speed
6  mph
5  kts
10  km/h
2.7  m/s
Wind Direction
N
45°
E
90°
135°
S
180°
225°
W
270°
315°
 260°

Due West
Airport Data
EGYM
RAF Marham
Metar :EGYM 261950Z 26005KT CAVOK 09/08 Q1001 TEMPO 7000 SHRA RMK BLU TEMPO WHT
Mon 26th September 20:50 pm
Raw Metar Info
Raw METAR is the most common format in the world for the transmission of observational weather data. It is highly standardized through the International Civil Aviation Organization (ICAO), which allows it to be understood throughout most of the world.
API Info
Data Provided by
https://www.checkwx.com/weather/EGYM

Aviation Weather providing METAR, TAF, AIRMET, SIGMET and OUTLOOK Weather Reports
© Info
CSS/SVG/PHP scripts were developed by weather34 for use in the weather34 template © 2015-2022

Guide Info provided by Metar-Wikipedia